Time;durP1;ratioP1;P1;durP2;ratioP2;P2;SDS_P1;SDS_P2;PMS_P1;PMS_P2;Temp;Humidity;BMP_temperature;BMP_pressure;BME280_temperature;BME280_humidity;BME280_pressure;Samples;Min_cycle;Max_cycle;Signal;HPM_P1;HPM_P2
2022/12/11 00:01:30;;;;;;;;;0.00;0.00;;;;;;;;4976958;28;28911;-95
2022/12/11 00:03:56;;;;;;;;;0.00;0.00;;;;;;;;4977744;28;28651;-95
2022/12/11 00:06:22;;;;;;;;;0.00;0.00;;;;;;;;4977512;28;28402;-96
2022/12/11 00:08:52;;;;;;;;;0.00;0.00;;;;;;;;4988627;28;30086;-96
2022/12/11 00:11:17;;;;;;;;;0.00;0.00;;;;;;;;4978363;28;28684;-95
2022/12/11 00:13:43;;;;;;;;;0.00;0.00;;;;;;;;4977990;28;28412;-96
2022/12/11 00:16:08;;;;;;;;;3.00;3.00;;;;;;;;4987713;28;28969;-95
2022/12/11 00:18:34;;;;;;;;;18.00;18.00;;;;;;;;4996537;28;30107;-96
2022/12/11 00:21:03;;;;;;;;;0.00;0.00;;;;;;;;5027484;28;28746;-96
2022/12/11 00:23:28;;;;;;;;;0.00;0.00;;;;;;;;4995001;28;28392;-94
2022/12/11 00:25:53;;;;;;;;;0.00;0.00;;;;;;;;4996238;28;28335;-94
2022/12/11 00:28:19;;;;;;;;;0.00;0.00;;;;;;;;4997786;28;29857;-95
2022/12/11 00:30:44;;;;;;;;;0.00;0.00;;;;;;;;5031309;28;28421;-96
2022/12/11 00:33:10;;;;;;;;;0.00;0.00;;;;;;;;5032704;28;28454;-96
2022/12/11 00:35:40;;;;;;;;;0.00;0.00;;;;;;;;5033097;28;28661;-94
2022/12/11 00:38:05;;;;;;;;;0.00;0.00;;;;;;;;5034557;28;30781;-95
2022/12/11 00:40:34;;;;;;;;;0.00;0.00;;;;;;;;5035352;28;28498;-95
2022/12/11 00:43:00;;;;;;;;;0.00;0.00;;;;;;;;5036305;28;27845;-95
2022/12/11 00:45:25;;;;;;;;;0.00;0.00;;;;;;;;5034163;28;28710;-95
2022/12/11 00:47:50;;;;;;;;;0.00;0.00;;;;;;;;5020456;28;29983;-94
2022/12/11 00:50:15;;;;;;;;;0.00;0.00;;;;;;;;4997095;28;28325;-96
2022/12/11 00:52:40;;;;;;;;;0.00;0.00;;;;;;;;4997644;28;28416;-96
2022/12/11 00:55:06;;;;;;;;;0.00;0.00;;;;;;;;4997636;28;28481;-96
2022/12/11 00:57:31;;;;;;;;;0.00;0.00;;;;;;;;4997098;28;30268;-96
2022/12/11 00:59:56;;;;;;;;;0.00;0.00;;;;;;;;4997270;28;28532;-96
2022/12/11 01:02:21;;;;;;;;;0.00;0.00;;;;;;;;4997471;28;28519;-96
2022/12/11 01:04:47;;;;;;;;;0.00;0.00;;;;;;;;4996572;28;28456;-95
2022/12/11 01:07:12;;;;;;;;;0.00;0.00;;;;;;;;5030319;28;30845;-95
2022/12/11 01:12:21;;;;;;;;;0.00;0.00;;;;;;;;5014730;28;28520;-95
2022/12/11 01:14:46;;;;;;;;;0.00;0.00;;;;;;;;5030354;28;27896;-96
2022/12/11 01:17:11;;;;;;;;;0.00;0.00;;;;;;;;5030293;28;29647;-95
2022/12/11 01:19:37;;;;;;;;;0.00;0.00;;;;;;;;5030217;28;28912;-96
2022/12/11 01:22:02;;;;;;;;;0.00;0.00;;;;;;;;5030301;28;28756;-95
2022/12/11 01:24:27;;;;;;;;;0.00;0.00;;;;;;;;5029933;28;28530;-96
2022/12/11 01:26:52;;;;;;;;;0.00;0.00;;;;;;;;4996064;28;30944;-95
2022/12/11 01:29:17;;;;;;;;;0.00;0.00;;;;;;;;4996864;28;28456;-94
2022/12/11 01:31:43;;;;;;;;;0.00;0.00;;;;;;;;4997067;28;28761;-95
2022/12/11 01:34:08;;;;;;;;;0.00;0.00;;;;;;;;4997230;28;28504;-95
2022/12/11 01:36:33;;;;;;;;;0.00;0.00;;;;;;;;4996830;28;29724;-95
2022/12/11 01:38:58;;;;;;;;;0.00;0.00;;;;;;;;4997343;28;29476;-95
2022/12/11 01:41:24;;;;;;;;;0.00;0.00;;;;;;;;4998696;28;28729;-94
2022/12/11 01:44:01;;;;;;;;;0.00;0.00;;;;;;;;5002117;28;28478;-95
2022/12/11 01:46:27;;;;;;;;;0.00;0.00;;;;;;;;5002013;28;30168;-94
2022/12/11 01:48:52;;;;;;;;;0.00;0.00;;;;;;;;4997915;28;28577;-94
2022/12/11 01:51:18;;;;;;;;;0.00;0.00;;;;;;;;4982607;28;28541;-95
2022/12/11 01:53:47;;;;;;;;;0.00;0.00;;;;;;;;4977143;28;28407;-95
2022/12/11 01:56:12;;;;;;;;;0.00;0.00;;;;;;;;4977349;28;29860;-94
2022/12/11 01:58:39;;;;;;;;;0.00;0.00;;;;;;;;4977039;28;28506;-95
2022/12/11 02:01:04;;;;;;;;;0.00;0.00;;;;;;;;4976553;28;28503;-95
2022/12/11 02:03:29;;;;;;;;;0.00;0.00;;;;;;;;4977081;28;28611;-96
2022/12/11 02:05:58;;;;;;;;;0.00;0.00;;;;;;;;4976582;28;29757;-96
2022/12/11 02:08:23;;;;;;;;;0.00;0.00;;;;;;;;4976646;28;28563;-94
2022/12/11 02:11:12;;;;;;;;;0.00;0.00;;;;;;;;4976063;28;28599;-95
2022/12/11 02:13:43;;;;;;;;;0.00;0.00;;;;;;;;4969292;28;28297;-95
2022/12/11 02:16:31;;;;;;;;;0.00;0.00;;;;;;;;4976804;28;30186;-95
2022/12/11 02:19:01;;;;;;;;;0.00;0.00;;;;;;;;4976901;28;30030;-95
2022/12/11 02:21:32;;;;;;;;;0.00;0.00;;;;;;;;4976179;28;28505;-95
2022/12/11 02:24:03;;;;;;;;;0.00;0.00;;;;;;;;4976182;28;27888;-95
2022/12/11 02:26:31;;;;;;;;;0.00;0.00;;;;;;;;4979509;28;29673;-96
2022/12/11 02:28:58;;;;;;;;;0.00;0.00;;;;;;;;5008287;28;28721;-95
2022/12/11 02:31:23;;;;;;;;;0.00;0.00;;;;;;;;5015553;28;28420;-95
2022/12/11 02:33:56;;;;;;;;;0.00;0.00;;;;;;;;5015698;28;28467;-95
2022/12/11 02:36:24;;;;;;;;;0.00;0.00;;;;;;;;5015049;28;30235;-95
2022/12/11 02:38:51;;;;;;;;;0.00;0.00;;;;;;;;5016490;28;29573;-96
2022/12/11 02:41:18;;;;;;;;;0.00;0.00;;;;;;;;5016668;28;28770;-95
2022/12/11 02:43:43;;;;;;;;;0.00;0.00;;;;;;;;5017196;28;27958;-95
2022/12/11 02:46:09;;;;;;;;;0.00;0.00;;;;;;;;5021126;28;31143;-95
2022/12/11 02:48:35;;;;;;;;;0.00;0.00;;;;;;;;5022423;28;28719;-95
2022/12/11 02:51:03;;;;;;;;;0.00;0.00;;;;;;;;5021120;28;28478;-95
2022/12/11 02:53:31;;;;;;;;;0.00;0.00;;;;;;;;5015342;28;28617;-95
2022/12/11 02:56:00;;;;;;;;;0.00;0.00;;;;;;;;5015321;28;29810;-95
2022/12/11 02:58:28;;;;;;;;;0.00;0.00;;;;;;;;5015484;28;28986;-95
2022/12/11 03:00:54;;;;;;;;;0.00;0.00;;;;;;;;4996420;28;28466;-95
2022/12/11 03:03:19;;;;;;;;;0.00;0.00;;;;;;;;4995784;28;28284;-95
2022/12/11 03:05:45;;;;;;;;;0.00;0.00;;;;;;;;4995527;28;30670;-96
2022/12/11 03:08:10;;;;;;;;;0.00;0.00;;;;;;;;4995513;28;28711;-95
2022/12/11 03:10:35;;;;;;;;;0.00;0.00;;;;;;;;5000397;28;28763;-95
2022/12/11 03:13:01;;;;;;;;;0.00;0.00;;;;;;;;5015841;28;28649;-96
2022/12/11 03:15:32;;;;;;;;;0.00;0.00;;;;;;;;5015258;28;29762;-95
2022/12/11 03:18:16;;;;;;;;;0.00;0.00;;;;;;;;5015175;28;28617;-96
2022/12/11 03:20:43;;;;;;;;;0.00;0.00;;;;;;;;5014746;28;28493;-95
2022/12/11 03:23:12;;;;;;;;;0.00;0.00;;;;;;;;5015107;28;28494;-96
2022/12/11 03:25:48;;;;;;;;;0.00;0.00;;;;;;;;5008561;28;30094;-95
2022/12/11 03:28:18;;;;;;;;;0.67;0.67;;;;;;;;5001473;28;29570;-95
2022/12/11 03:30:44;;;;;;;;;0.00;0.00;;;;;;;;5014442;28;28448;-95
2022/12/11 03:33:12;;;;;;;;;0.00;0.00;;;;;;;;5014527;28;28705;-95
2022/12/11 03:35:39;;;;;;;;;0.00;0.00;;;;;;;;5014227;28;30820;-95
2022/12/11 03:38:07;;;;;;;;;0.00;0.00;;;;;;;;5014770;28;29553;-96
2022/12/11 03:40:34;;;;;;;;;0.00;0.00;;;;;;;;5014742;28;28369;-95
2022/12/11 03:43:00;;;;;;;;;0.00;0.00;;;;;;;;5015481;28;28601;-96
2022/12/11 03:45:26;;;;;;;;;0.00;0.00;;;;;;;;5015407;28;29996;-94
2022/12/11 03:47:52;;;;;;;;;0.00;0.00;;;;;;;;5015912;28;28510;-96
2022/12/11 03:50:19;;;;;;;;;0.00;0.00;;;;;;;;5017139;28;28124;-95
2022/12/11 03:52:46;;;;;;;;;0.00;0.00;;;;;;;;5019043;28;28476;-94
2022/12/11 03:55:12;;;;;;;;;0.00;0.00;;;;;;;;5017774;28;30103;-95
2022/12/11 03:57:37;;;;;;;;;0.00;0.00;;;;;;;;5015507;28;28498;-96
2022/12/11 04:00:07;;;;;;;;;0.00;0.00;;;;;;;;5004016;28;28348;-95
2022/12/11 04:02:32;;;;;;;;;0.00;0.00;;;;;;;;4998992;28;28466;-95
2022/12/11 04:04:58;;;;;;;;;0.00;0.00;;;;;;;;4997921;28;29929;-94
2022/12/11 04:07:23;;;;;;;;;0.00;0.00;;;;;;;;4998243;28;28366;-95
2022/12/11 04:09:48;;;;;;;;;0.00;0.00;;;;;;;;5004920;28;27860;-95
2022/12/11 04:12:13;;;;;;;;;0.00;0.00;;;;;;;;5018056;28;28390;-96
2022/12/11 04:25:34;;;;;;;;;0.00;0.00;;;;;;;;5035424;28;28898;-95
2022/12/11 04:27:59;;;;;;;;;0.00;0.00;;;;;;;;5021503;28;29917;-96
2022/12/11 04:30:25;;;;;;;;;0.00;0.00;;;;;;;;5037150;28;8823;-95
2022/12/11 04:32:50;;;;;;;;;0.00;0.00;;;;;;;;5037082;28;8815;-95
2022/12/11 04:35:16;;;;;;;;;0.00;0.00;;;;;;;;5035157;28;27948;-96
2022/12/11 04:37:41;;;;;;;;;0.00;0.00;;;;;;;;5021440;28;28420;-95
2022/12/11 04:40:08;;;;;;;;;0.00;0.00;;;;;;;;5027407;28;28372;-95
2022/12/11 04:42:34;;;;;;;;;0.00;0.00;;;;;;;;5022624;28;27974;-95
2022/12/11 04:44:59;;;;;;;;;0.00;0.00;;;;;;;;5037121;28;8808;-95
2022/12/11 04:47:24;;;;;;;;;0.00;0.00;;;;;;;;5037240;28;8930;-96
2022/12/11 04:49:49;;;;;;;;;0.00;0.00;;;;;;;;5037793;28;8796;-95
2022/12/11 04:52:15;;;;;;;;;0.00;0.00;;;;;;;;5036525;28;26481;-95
2022/12/11 04:54:41;;;;;;;;;0.00;0.00;;;;;;;;5019680;28;29760;-95
2022/12/11 04:57:06;;;;;;;;;0.00;0.00;;;;;;;;5022332;28;28705;-95
2022/12/11 04:59:32;;;;;;;;;0.00;0.00;;;;;;;;5021521;28;28540;-95
2022/12/11 05:01:57;;;;;;;;;3.00;3.00;;;;;;;;5022233;28;28658;-95
2022/12/11 05:04:22;;;;;;;;;0.00;0.00;;;;;;;;5021917;28;30034;-94
2022/12/11 05:06:48;;;;;;;;;0.00;0.00;;;;;;;;5019577;28;28457;-95
2022/12/11 05:09:13;;;;;;;;;0.00;0.00;;;;;;;;5015941;28;28423;-95
2022/12/11 05:11:39;;;;;;;;;0.00;0.00;;;;;;;;5016253;28;28618;-95
2022/12/11 05:14:04;;;;;;;;;0.00;0.00;;;;;;;;5016669;28;29915;-95
2022/12/11 05:16:29;;;;;;;;;0.00;0.00;;;;;;;;5018863;28;28760;-96
2022/12/11 05:18:55;;;;;;;;;0.00;0.00;;;;;;;;5024375;28;28553;-95
2022/12/11 05:21:20;;;;;;;;;0.00;0.00;;;;;;;;5014511;28;8904;-96
2022/12/11 05:23:45;;;;;;;;;0.00;0.00;;;;;;;;5016046;28;8836;-96
2022/12/11 05:26:12;;;;;;;;;0.00;0.00;;;;;;;;5015132;28;27697;-95
2022/12/11 05:28:38;;;;;;;;;0.00;0.00;;;;;;;;5006129;28;28477;-95
2022/12/11 05:31:05;;;;;;;;;0.00;0.00;;;;;;;;5019534;28;28520;-96
2022/12/11 05:33:31;;;;;;;;;0.00;0.00;;;;;;;;5018552;28;30048;-96
2022/12/11 05:35:56;;;;;;;;;0.00;0.00;;;;;;;;5018438;28;28598;-95
2022/12/11 05:38:22;;;;;;;;;0.00;0.00;;;;;;;;5018198;28;28384;-95
2022/12/11 05:41:00;;;;;;;;;0.00;0.00;;;;;;;;5019012;28;28593;-96
2022/12/11 05:43:27;;;;;;;;;0.00;0.00;;;;;;;;5018278;28;31001;-95
2022/12/11 05:45:52;;;;;;;;;0.00;0.00;;;;;;;;5017097;28;28860;-95
2022/12/11 05:48:17;;;;;;;;;0.00;0.00;;;;;;;;5017321;28;28534;-95
2022/12/11 05:50:43;;;;;;;;;0.00;0.00;;;;;;;;5016916;28;28502;-95
2022/12/11 05:53:08;;;;;;;;;0.00;0.00;;;;;;;;5017358;28;31100;-96
2022/12/11 05:55:33;;;;;;;;;0.00;0.00;;;;;;;;5018538;28;28533;-96
2022/12/11 05:57:59;;;;;;;;;0.00;0.00;;;;;;;;5019118;28;28412;-95
2022/12/11 06:00:24;;;;;;;;;0.00;0.00;;;;;;;;5017454;28;27892;-95
2022/12/11 06:02:49;;;;;;;;;0.00;0.00;;;;;;;;5020056;28;30649;-95
2022/12/11 06:05:14;;;;;;;;;0.00;0.00;;;;;;;;5020486;28;28699;-95
2022/12/11 06:07:39;;;;;;;;;0.00;0.00;;;;;;;;5018025;28;28444;-96
2022/12/11 06:10:05;;;;;;;;;6.00;6.00;;;;;;;;5016995;28;28527;-95
2022/12/11 06:12:30;;;;;;;;;0.00;0.00;;;;;;;;5018155;28;30141;-95
2022/12/11 06:14:56;;;;;;;;;0.00;0.00;;;;;;;;5015430;28;28530;-94
2022/12/11 06:17:21;;;;;;;;;0.00;0.00;;;;;;;;5015638;28;27864;-96
2022/12/11 06:19:46;;;;;;;;;0.00;0.00;;;;;;;;5015033;28;28594;-94
2022/12/11 06:22:11;;;;;;;;;16.50;16.50;;;;;;;;5015126;28;30027;-95
2022/12/11 06:24:36;;;;;;;;;0.00;0.00;;;;;;;;5014016;28;28627;-96
2022/12/11 06:27:02;;;;;;;;;0.00;0.00;;;;;;;;5014958;28;27928;-95
2022/12/11 06:29:27;;;;;;;;;0.00;0.00;;;;;;;;5015674;28;27836;-95
2022/12/11 06:31:52;;;;;;;;;0.00;0.00;;;;;;;;5014149;28;29711;-95
2022/12/11 06:34:17;;;;;;;;;0.00;0.00;;;;;;;;5014947;28;28506;-95
2022/12/11 06:36:42;;;;;;;;;0.00;0.00;;;;;;;;5014077;28;27797;-95
2022/12/11 06:39:08;;;;;;;;;6.00;6.00;;;;;;;;5014909;28;28405;-95
2022/12/11 06:41:33;;;;;;;;;0.00;0.00;;;;;;;;5014645;28;29975;-95
2022/12/11 06:43:58;;;;;;;;;1.00;1.00;;;;;;;;5014897;28;28626;-95
2022/12/11 06:46:23;;;;;;;;;0.00;0.00;;;;;;;;5014821;28;28361;-95
2022/12/11 06:48:49;;;;;;;;;0.00;0.00;;;;;;;;5014932;28;28639;-94
2022/12/11 06:51:15;;;;;;;;;0.00;0.00;;;;;;;;5013209;28;29820;-94
2022/12/11 06:53:41;;;;;;;;;0.00;0.00;;;;;;;;5014439;28;28752;-95
2022/12/11 06:56:08;;;;;;;;;0.00;0.00;;;;;;;;5014000;28;28443;-96
2022/12/11 06:58:34;;;;;;;;;0.00;0.00;;;;;;;;5014372;28;28428;-94
2022/12/11 07:01:00;;;;;;;;;0.00;0.00;;;;;;;;5015085;28;29927;-95
2022/12/11 07:03:26;;;;;;;;;0.00;0.00;;;;;;;;5016308;28;28585;-95
2022/12/11 07:05:51;;;;;;;;;0.00;0.00;;;;;;;;5018467;28;28447;-94
2022/12/11 07:08:16;;;;;;;;;0.00;0.00;;;;;;;;5020157;28;28368;-94
2022/12/11 07:10:41;;;;;;;;;0.00;0.00;;;;;;;;5019607;28;29983;-94
2022/12/11 07:13:06;;;;;;;;;0.00;0.00;;;;;;;;5015327;28;28710;-94
2022/12/11 07:15:32;;;;;;;;;0.00;0.00;;;;;;;;5015088;28;27874;-95
2022/12/11 07:17:57;;;;;;;;;0.00;0.00;;;;;;;;5016568;28;28042;-95
2022/12/11 07:20:22;;;;;;;;;0.00;0.00;;;;;;;;5012405;28;30268;-95
2022/12/11 07:22:47;;;;;;;;;0.00;0.00;;;;;;;;4994006;28;28607;-96
2022/12/11 07:25:13;;;;;;;;;0.00;0.00;;;;;;;;4994174;28;28339;-89
2022/12/11 07:27:38;;;;;;;;;0.00;0.00;;;;;;;;5012287;28;27725;-93
2022/12/11 07:30:03;;;;;;;;;0.00;0.00;;;;;;;;5030714;28;29205;-92
2022/12/11 07:32:29;;;;;;;;;0.00;0.00;;;;;;;;5012758;28;29387;-90
2022/12/11 07:34:54;;;;;;;;;0.00;0.00;;;;;;;;5011486;28;28422;-90
2022/12/11 07:37:19;;;;;;;;;0.00;0.00;;;;;;;;5015020;28;28302;-90
2022/12/11 07:39:44;;;;;;;;;0.00;0.00;;;;;;;;5015581;28;29673;-90
2022/12/11 07:42:09;;;;;;;;;0.00;0.00;;;;;;;;5015563;28;28558;-90
2022/12/11 07:44:34;;;;;;;;;0.00;0.00;;;;;;;;5015899;28;28491;-89
2022/12/11 07:47:00;;;;;;;;;0.00;0.00;;;;;;;;5034043;28;28389;-91
2022/12/11 07:49:25;;;;;;;;;0.00;0.00;;;;;;;;5017317;28;29779;-90
2022/12/11 07:51:50;;;;;;;;;0.00;0.00;;;;;;;;5018393;28;28944;-89
2022/12/11 07:54:15;;;;;;;;;0.00;0.00;;;;;;;;5036908;28;28331;-90
2022/12/11 07:56:44;;;;;;;;;0.00;0.00;;;;;;;;5037830;28;28432;-90
2022/12/11 07:59:10;;;;;;;;;0.00;0.00;;;;;;;;5015607;28;30043;-91
2022/12/11 08:01:36;;;;;;;;;0.00;0.00;;;;;;;;5032785;28;28601;-90
2022/12/11 08:04:02;;;;;;;;;0.00;0.00;;;;;;;;5040255;28;28573;-90
2022/12/11 08:06:32;;;;;;;;;0.00;0.00;;;;;;;;5017319;28;28576;-91
2022/12/11 08:08:58;;;;;;;;;0.00;0.00;;;;;;;;5019460;28;29374;-92
2022/12/11 08:11:23;;;;;;;;;0.00;0.00;;;;;;;;5035322;28;28891;-91
2022/12/11 08:13:49;;;;;;;;;10.00;10.00;;;;;;;;5023800;28;28743;-90
2022/12/11 08:16:14;;;;;;;;;0.00;0.00;;;;;;;;5040127;28;28455;-92
2022/12/11 08:18:41;;;;;;;;;0.00;0.00;;;;;;;;5013954;28;29942;-94
2022/12/11 08:21:19;;;;;;;;;0.00;0.00;;;;;;;;4996193;28;28938;-94
2022/12/11 08:23:45;;;;;;;;;3.00;3.00;;;;;;;;5010726;28;27805;-94
2022/12/11 08:26:13;;;;;;;;;0.00;0.00;;;;;;;;5015852;28;8806;-93
2022/12/11 08:28:38;;;;;;;;;0.00;0.00;;;;;;;;5032267;28;8893;-94
2022/12/11 08:31:04;;;;;;;;;0.00;0.00;;;;;;;;5050480;28;27823;-92
2022/12/11 08:33:30;;;;;;;;;0.00;0.00;;;;;;;;5017309;28;28689;-94
2022/12/11 08:35:55;;;;;;;;;7.00;7.00;;;;;;;;5013465;28;28614;-92
2022/12/11 08:38:20;;;;;;;;;0.00;0.00;;;;;;;;5031875;28;28477;-91
2022/12/11 08:40:45;;;;;;;;;0.00;0.00;;;;;;;;5030883;28;28570;-89
2022/12/11 08:43:11;;;;;;;;;0.00;0.00;;;;;;;;5030851;28;28551;-89
2022/12/11 08:45:36;;;;;;;;;0.00;0.00;;;;;;;;5013166;28;28448;-95
2022/12/11 08:48:02;;;;;;;;;0.00;0.00;;;;;;;;5030487;28;28689;-88
2022/12/11 08:50:27;;;;;;;;;6.00;6.00;;;;;;;;5029601;28;28556;-89
2022/12/11 08:52:52;;;;;;;;;0.00;0.00;;;;;;;;5030958;28;28489;-89
2022/12/11 08:55:18;;;;;;;;;0.00;0.00;;;;;;;;5029502;28;28717;-89
2022/12/11 08:57:43;;;;;;;;;0.00;0.00;;;;;;;;5012080;28;30730;-88
2022/12/11 09:00:11;;;;;;;;;2.67;2.67;;;;;;;;5028034;28;28360;-88
2022/12/11 09:02:39;;;;;;;;;0.00;0.00;;;;;;;;5031644;28;28419;-96
2022/12/11 09:05:06;;;;;;;;;0.00;0.00;;;;;;;;5019342;28;28475;-93
2022/12/11 09:07:32;;;;;;;;;3.00;3.00;;;;;;;;5021186;28;30601;-96
2022/12/11 09:09:57;;;;;;;;;0.00;0.00;;;;;;;;5019134;28;28583;-91
2022/12/11 09:12:22;;;;;;;;;0.00;0.00;;;;;;;;5035158;28;28415;-91
2022/12/11 09:14:48;;;;;;;;;0.00;0.00;;;;;;;;5034214;28;27817;-90
2022/12/11 09:17:13;;;;;;;;;0.67;0.67;;;;;;;;5018769;28;30768;-88
2022/12/11 09:19:38;;;;;;;;;1.00;0.00;;;;;;;;5032706;28;28497;-89
2022/12/11 09:22:03;;;;;;;;;0.00;0.00;;;;;;;;5011809;28;28380;-88
2022/12/11 09:24:28;;;;;;;;;0.00;0.00;;;;;;;;5028536;28;28417;-89
2022/12/11 09:26:54;;;;;;;;;0.00;0.00;;;;;;;;5033505;28;29370;-90
2022/12/11 09:29:19;;;;;;;;;0.00;0.00;;;;;;;;4988775;28;28598;-90
2022/12/11 09:31:45;;;;;;;;;0.00;0.00;;;;;;;;4992465;28;28475;-91
2022/12/11 09:34:11;;;;;;;;;0.00;0.00;;;;;;;;5011717;28;28341;-90
2022/12/11 09:36:40;;;;;;;;;0.00;0.00;;;;;;;;5013412;28;28456;-90
2022/12/11 09:39:06;;;;;;;;;0.00;0.00;;;;;;;;5022981;28;28567;-91
2022/12/11 09:41:34;;;;;;;;;0.00;0.00;;;;;;;;5001182;28;27916;-91
2022/12/11 09:44:17;;;;;;;;;0.00;0.00;;;;;;;;4999837;28;28463;-91
2022/12/11 09:46:43;;;;;;;;;0.00;0.00;;;;;;;;5000132;28;30751;-91
2022/12/11 09:49:37;;;;;;;;;0.00;0.00;;;;;;;;5004058;28;28587;-90
2022/12/11 09:52:10;;;;;;;;;0.67;0.67;;;;;;;;4980727;28;28414;-90
2022/12/11 09:54:35;;;;;;;;;0.00;0.00;;;;;;;;5010717;28;28462;-91
2022/12/11 09:57:03;;;;;;;;;2.00;2.00;;;;;;;;5010875;28;29278;-91
2022/12/11 09:59:29;;;;;;;;;0.00;0.00;;;;;;;;4996340;28;28821;-91
2022/12/11 10:02:01;;;;;;;;;0.00;0.00;;;;;;;;5000454;28;28677;-91
2022/12/11 10:04:40;;;;;;;;;0.00;0.00;;;;;;;;5005620;28;28600;-91
2022/12/11 10:07:05;;;;;;;;;0.00;0.00;;;;;;;;4992371;28;28461;-90
2022/12/11 10:09:57;;;;;;;;;0.00;0.00;;;;;;;;4993739;28;28643;-90
2022/12/11 10:12:42;;;;;;;;;0.00;0.00;;;;;;;;5006265;28;28642;-90
2022/12/11 10:15:15;;;;;;;;;0.00;0.00;;;;;;;;4995495;28;28492;-90
2022/12/11 10:17:43;;;;;;;;;0.00;0.00;;;;;;;;5010828;28;31072;-90
2022/12/11 10:20:08;;;;;;;;;0.00;0.00;;;;;;;;5013881;28;28450;-90
2022/12/11 10:22:33;;;;;;;;;0.00;0.00;;;;;;;;4999386;28;28512;-90
2022/12/11 10:25:01;;;;;;;;;0.00;0.00;;;;;;;;5011832;28;28306;-91
2022/12/11 10:27:30;;;;;;;;;0.00;0.00;;;;;;;;5022471;28;28765;-90
2022/12/11 10:30:01;;;;;;;;;0.00;0.00;;;;;;;;5001325;28;29332;-90
2022/12/11 10:32:41;;;;;;;;;0.00;0.00;;;;;;;;5016226;28;28601;-90
2022/12/11 10:35:11;;;;;;;;;0.00;0.00;;;;;;;;5029075;28;28534;-90
2022/12/11 10:37:37;;;;;;;;;0.00;0.00;;;;;;;;5036264;28;28820;-91
2022/12/11 10:40:04;;;;;;;;;0.00;0.00;;;;;;;;5004224;28;29234;-91
2022/12/11 10:42:29;;;;;;;;;0.00;0.00;;;;;;;;5013279;28;28344;-90
2022/12/11 10:44:56;;;;;;;;;0.00;0.00;;;;;;;;5015644;28;28512;-89
2022/12/11 10:47:22;;;;;;;;;0.00;0.00;;;;;;;;5010779;28;28429;-91
2022/12/11 10:49:53;;;;;;;;;0.00;0.00;;;;;;;;5010540;28;28750;-91
2022/12/11 10:52:24;;;;;;;;;0.00;0.00;;;;;;;;4997677;28;28595;-90
2022/12/11 10:54:58;;;;;;;;;0.00;0.00;;;;;;;;5015441;28;28566;-90
2022/12/11 10:57:31;;;;;;;;;0.00;0.00;;;;;;;;5024373;28;29301;-91
2022/12/11 10:59:57;;;;;;;;;0.00;0.00;;;;;;;;5029637;28;28502;-91
2022/12/11 11:02:31;;;;;;;;;0.00;0.00;;;;;;;;5010354;28;28572;-90
2022/12/11 11:04:58;;;;;;;;;0.00;0.00;;;;;;;;5010524;28;28475;-90
2022/12/11 11:07:25;;;;;;;;;0.00;0.00;;;;;;;;5021420;28;28504;-89
2022/12/11 11:10:01;;;;;;;;;0.00;0.00;;;;;;;;5009568;28;28606;-89
2022/12/11 11:12:27;;;;;;;;;0.00;0.00;;;;;;;;5029118;28;28624;-90
2022/12/11 11:14:59;;;;;;;;;0.00;0.00;;;;;;;;5029274;28;28613;-89
2022/12/11 11:17:24;;;;;;;;;0.00;0.00;;;;;;;;5015421;28;29802;-89
2022/12/11 11:19:49;;;;;;;;;0.00;0.00;;;;;;;;5004935;28;29597;-90
2022/12/11 11:22:16;;;;;;;;;0.00;0.00;;;;;;;;5001909;28;28435;-89
2022/12/11 11:24:45;;;;;;;;;0.00;0.00;;;;;;;;5026143;28;28389;-89
2022/12/11 11:27:30;;;;;;;;;0.00;0.00;;;;;;;;5007273;28;30151;-90
2022/12/11 11:29:58;;;;;;;;;0.00;0.00;;;;;;;;5003054;28;9729;-90
2022/12/11 11:32:35;;;;;;;;;0.00;0.00;;;;;;;;5012366;28;8969;-90
2022/12/11 11:35:10;;;;;;;;;0.00;0.00;;;;;;;;5024389;28;25636;-90
2022/12/11 11:37:35;;;;;;;;;0.00;0.00;;;;;;;;4991525;28;29977;-90
2022/12/11 11:40:04;;;;;;;;;0.00;0.00;;;;;;;;5009474;28;28456;-90
2022/12/11 11:42:39;;;;;;;;;0.00;0.00;;;;;;;;5008184;28;27865;-90
2022/12/11 11:45:11;;;;;;;;;0.00;0.00;;;;;;;;5009566;28;28559;-89
2022/12/11 11:47:40;;;;;;;;;0.00;0.00;;;;;;;;5009759;28;28623;-90
2022/12/11 11:50:21;;;;;;;;;1.67;1.67;;;;;;;;4991010;28;28930;-90
2022/12/11 11:52:58;;;;;;;;;0.33;0.33;;;;;;;;5008273;28;28416;-90
2022/12/11 11:55:36;;;;;;;;;0.00;0.00;;;;;;;;4986455;28;28610;-90
2022/12/11 11:58:06;;;;;;;;;16.00;16.00;;;;;;;;4990006;28;29849;-90
2022/12/11 12:00:31;;;;;;;;;0.00;0.00;;;;;;;;4990305;28;28531;-90
2022/12/11 12:02:59;;;;;;;;;0.00;0.00;;;;;;;;5011557;28;28549;-89
2022/12/11 12:05:30;;;;;;;;;0.00;0.00;;;;;;;;4985772;28;29923;-90
2022/12/11 12:08:02;;;;;;;;;0.00;0.00;;;;;;;;5018716;28;29882;-91
2022/12/11 12:10:32;;;;;;;;;0.00;0.00;;;;;;;;5007854;28;28614;-90
2022/12/11 12:13:00;;;;;;;;;0.00;0.00;;;;;;;;5009102;28;28642;-90
2022/12/11 12:15:58;;;;;;;;;0.00;0.00;;;;;;;;4990727;28;28682;-90
2022/12/11 12:18:26;;;;;;;;;0.00;0.00;;;;;;;;4908116;29;29401;-91
2022/12/11 12:20:51;;;;;;;;;0.00;0.00;;;;;;;;4891464;29;28595;-90
2022/12/11 12:23:17;;;;;;;;;0.00;0.00;;;;;;;;4911437;28;28683;-89
2022/12/11 12:25:51;;;;;;;;;0.00;0.00;;;;;;;;4930984;28;27851;-90
2022/12/11 12:28:25;;;;;;;;;0.00;0.00;;;;;;;;4931295;28;8833;-90
2022/12/11 12:31:09;;;;;;;;;0.00;0.00;;;;;;;;4931579;28;8954;-91
2022/12/11 12:33:41;;;;;;;;;0.00;0.00;;;;;;;;4931786;28;28512;-90
2022/12/11 12:36:14;;;;;;;;;0.00;0.00;;;;;;;;4915375;28;28562;-90
2022/12/11 12:38:52;;;;;;;;;0.00;0.00;;;;;;;;4891115;29;30225;-89
2022/12/11 12:41:21;;;;;;;;;0.00;0.00;;;;;;;;4914818;28;28748;-91
2022/12/11 12:43:53;;;;;;;;;0.00;0.00;;;;;;;;4896121;29;28597;-90
2022/12/11 12:46:25;;;;;;;;;0.00;0.00;;;;;;;;4909907;29;28486;-91
2022/12/11 12:48:51;;;;;;;;;0.00;0.00;;;;;;;;4910868;29;29405;-91
2022/12/11 12:51:17;;;;;;;;;0.00;0.00;;;;;;;;4947409;28;28895;-90
2022/12/11 12:53:52;;;;;;;;;0.00;0.00;;;;;;;;4961592;28;8825;-90
2022/12/11 12:56:18;;;;;;;;;0.00;0.00;;;;;;;;5019064;28;8909;-90
2022/12/11 12:58:44;;;;;;;;;0.00;0.00;;;;;;;;5030091;28;27938;-91
2022/12/11 13:01:14;;;;;;;;;0.00;0.00;;;;;;;;5011278;28;28578;-90
2022/12/11 13:03:58;;;;;;;;;0.00;0.00;;;;;;;;4996032;28;28472;-89
2022/12/11 13:06:29;;;;;;;;;0.00;0.00;;;;;;;;5009056;28;28479;-93
2022/12/11 13:08:55;;;;;;;;;0.00;0.00;;;;;;;;4994841;28;28591;-92
2022/12/11 13:11:29;;;;;;;;;0.00;0.00;;;;;;;;4994298;28;29492;-90
2022/12/11 13:14:21;;;;;;;;;0.00;0.00;;;;;;;;5014517;28;28326;-88
2022/12/11 13:16:47;;;;;;;;;0.00;0.00;;;;;;;;4989769;28;28576;-89
2022/12/11 13:19:17;;;;;;;;;0.00;0.00;;;;;;;;4990849;28;30026;-89
2022/12/11 13:21:53;;;;;;;;;0.00;0.00;;;;;;;;5003645;28;28347;-89
2022/12/11 13:24:19;;;;;;;;;0.00;0.00;;;;;;;;5011129;28;28591;-89
2022/12/11 13:26:44;;;;;;;;;0.00;0.00;;;;;;;;5012088;28;28583;-89
2022/12/11 13:29:29;;;;;;;;;0.00;0.00;;;;;;;;4993938;28;30564;-90
2022/12/11 13:32:03;;;;;;;;;0.00;0.00;;;;;;;;5014438;28;28514;-89
2022/12/11 13:34:33;;;;;;;;;0.00;0.00;;;;;;;;5010347;28;28507;-92
2022/12/11 13:37:00;;;;;;;;;3.00;3.00;;;;;;;;4998110;28;28664;-88
2022/12/11 13:39:28;;;;;;;;;0.00;0.00;;;;;;;;5013706;28;28613;-89
2022/12/11 13:41:58;;;;;;;;;0.00;0.00;;;;;;;;5010171;28;28624;-88
2022/12/11 13:44:26;;;;;;;;;0.00;0.00;;;;;;;;5012810;28;20760;-90
2022/12/11 13:46:53;;;;;;;;;0.00;0.00;;;;;;;;5011227;28;8777;-91
2022/12/11 13:49:25;;;;;;;;;0.00;0.00;;;;;;;;5013796;28;8822;-90
2022/12/11 13:51:51;;;;;;;;;0.00;0.00;;;;;;;;5006361;28;26577;-92
2022/12/11 13:54:17;;;;;;;;;0.00;0.00;;;;;;;;5007094;28;28680;-89
2022/12/11 13:56:54;;;;;;;;;0.00;0.00;;;;;;;;4994589;28;28405;-90
2022/12/11 13:59:24;;;;;;;;;0.00;0.00;;;;;;;;5010905;28;29389;-90
2022/12/11 14:01:52;;;;;;;;;0.00;0.00;;;;;;;;5003720;28;29876;-90
2022/12/11 14:04:18;;;;;;;;;0.00;0.00;;;;;;;;4992983;28;28487;-89
2022/12/11 14:06:44;;;;;;;;;0.00;0.00;;;;;;;;5007071;28;28840;-89
2022/12/11 14:09:14;;;;;;;;;3.00;3.00;;;;;;;;4987593;28;29918;-89
2022/12/11 14:11:41;;;;;;;;;0.00;0.00;;;;;;;;4991110;28;28926;-88
2022/12/11 14:14:26;;;;;;;;;0.00;0.00;;;;;;;;4992214;28;28532;-89
2022/12/11 14:16:52;;;;;;;;;0.00;0.00;;;;;;;;4988064;28;28393;-89
2022/12/11 14:19:19;;;;;;;;;0.00;0.00;;;;;;;;4991006;28;30151;-89
2022/12/11 14:21:54;;;;;;;;;0.00;0.00;;;;;;;;4988387;28;29654;-88
2022/12/11 14:24:19;;;;;;;;;0.00;0.00;;;;;;;;5010130;28;30050;-89
2022/12/11 14:26:48;;;;;;;;;0.00;0.00;;;;;;;;4990707;28;28790;-88
2022/12/11 14:29:34;;;;;;;;;0.00;0.00;;;;;;;;5006216;28;28683;-89
2022/12/11 14:32:01;;;;;;;;;0.00;0.00;;;;;;;;5008153;28;28515;-89
2022/12/11 14:34:40;;;;;;;;;0.00;0.00;;;;;;;;4989843;28;28543;-88
2022/12/11 14:37:06;;;;;;;;;0.00;0.00;;;;;;;;4990909;28;28690;-88
2022/12/11 14:39:35;;;;;;;;;0.00;0.00;;;;;;;;4990166;28;31540;-89
2022/12/11 14:42:03;;;;;;;;;0.00;0.00;;;;;;;;4989121;28;28731;-88
2022/12/11 14:44:32;;;;;;;;;0.00;0.00;;;;;;;;5018213;28;28440;-88
2022/12/11 14:47:01;;;;;;;;;0.00;0.00;;;;;;;;4987465;28;29442;-89
2022/12/11 14:49:46;;;;;;;;;0.00;0.00;;;;;;;;4988769;28;31215;-88
2022/12/11 14:52:18;;;;;;;;;0.00;0.00;;;;;;;;4988067;28;29049;-90
2022/12/11 14:54:52;;;;;;;;;0.00;0.00;;;;;;;;5006836;28;28562;-88
2022/12/11 14:57:18;;;;;;;;;0.00;0.00;;;;;;;;5003960;28;28582;-88
2022/12/11 14:59:45;;;;;;;;;0.00;0.00;;;;;;;;4990593;28;29827;-88
2022/12/11 15:02:19;;;;;;;;;0.00;0.00;;;;;;;;5004996;28;28432;-89